Time;durP1;ratioP1;P1;durP2;ratioP2;P2;SDS_P1;SDS_P2;PMS_P1;PMS_P2;Temp;Humidity;BMP_temperature;BMP_pressure;BME280_temperature;BME280_humidity;BME280_pressure;Samples;Min_cycle;Max_cycle;Signal;HPM_P1;HPM_P2
2022/12/08 00:01:43;;;;;;;52.53;23.60;;;;;;;4.10;82.35;93728.31;5084068;28;20025;-80
2022/12/08 00:04:09;;;;;;;47.85;21.33;;;;;;;4.12;82.45;93729.59;5085011;28;20032;-81
2022/12/08 00:09:23;;;;;;;45.95;21.27;;;;;;;4.16;82.53;93743.03;5084899;28;20026;-80
2022/12/08 00:12:00;;;;;;;41.15;20.92;;;;;;;4.18;82.30;93752.22;5084900;28;20029;-80
2022/12/08 00:14:31;;;;;;;43.30;21.33;;;;;;;4.20;82.43;93758.03;5084787;28;20047;-80
2022/12/08 00:16:58;;;;;;;49.70;21.48;;;;;;;4.14;82.09;93764.41;5084847;28;20021;-80
2022/12/08 00:19:25;;;;;;;46.28;20.48;;;;;;;4.12;82.09;93771.78;5084698;28;20227;-80
2022/12/08 00:21:51;;;;;;;51.03;23.10;;;;;;;4.04;82.41;93771.59;5084541;28;20314;-80
2022/12/08 00:24:16;;;;;;;51.80;22.27;;;;;;;3.95;83.34;93776.66;5084835;28;20020;-80
2022/12/08 00:26:42;;;;;;;50.97;24.52;;;;;;;3.93;83.75;93761.13;5084627;28;20063;-80
2022/12/08 00:29:08;;;;;;;50.65;25.70;;;;;;;3.94;83.78;93765.31;5084653;28;20310;-80
2022/12/08 00:31:34;;;;;;;49.85;23.48;;;;;;;3.92;83.86;93766.66;5084729;28;20027;-80
2022/12/08 00:33:59;;;;;;;53.25;23.50;;;;;;;3.84;84.63;93770.66;5084398;28;20021;-79
2022/12/08 00:36:25;;;;;;;52.08;23.45;;;;;;;3.80;84.88;93770.41;5084384;28;20038;-80
2022/12/08 00:38:50;;;;;;;47.40;21.63;;;;;;;3.80;84.95;93769.63;5084398;28;20020;-80
2022/12/08 00:42:10;;;;;;;53.00;24.88;;;;;;;3.76;85.37;93771.22;5084174;28;20025;-79
2022/12/08 00:44:09;;;;;;;48.40;22.35;;;;;;;3.82;85.76;93767.50;5084216;28;20326;-80
2022/12/08 00:46:35;;;;;;;55.10;24.08;;;;;;;3.86;85.43;93775.66;5084156;28;20020;-80
2022/12/08 00:49:01;;;;;;;54.67;22.88;;;;;;;3.94;84.75;93773.22;5084266;28;20028;-80
2022/12/08 00:51:26;;;;;;;61.90;26.20;;;;;;;3.98;84.24;93768.19;5083997;28;20019;-80
2022/12/08 00:53:51;;;;;;;55.30;23.58;;;;;;;4.00;83.75;93790.59;5082699;28;20028;-80
2022/12/08 00:56:17;;;;;;;50.03;22.15;;;;;;;4.02;83.18;93787.69;5084070;28;20032;-79
2022/12/08 00:58:42;;;;;;;50.42;23.10;;;;;;;4.02;83.39;93777.13;5083895;28;20028;-79
2022/12/08 01:01:12;;;;;;;49.08;22.90;;;;;;;4.06;83.31;93772.91;5083804;28;20135;-81
2022/12/08 01:03:38;;;;;;;51.42;21.67;;;;;;;4.12;83.24;93777.06;5083771;28;20031;-81
2022/12/08 01:06:04;;;;;;;45.00;21.58;;;;;;;4.17;82.90;93769.13;5083962;28;20032;-81
2022/12/08 01:08:29;;;;;;;45.10;21.67;;;;;;;4.26;81.95;93763.28;5082865;28;20024;-80
2022/12/08 01:10:55;;;;;;;42.42;18.67;;;;;;;4.18;82.07;93757.50;5083615;28;20016;-80
2022/12/08 01:13:20;;;;;;;38.53;19.10;;;;;;;4.25;81.80;93764.31;5083530;28;20036;-80
2022/12/08 01:15:46;;;;;;;41.58;18.80;;;;;;;4.33;81.65;93771.66;5083650;28;20367;-79
2022/12/08 01:18:11;;;;;;;41.05;19.80;;;;;;;4.36;81.36;93763.97;5083599;28;20330;-80
2022/12/08 01:20:36;;;;;;;44.35;20.25;;;;;;;4.38;81.29;93766.34;5083446;28;20035;-80
2022/12/08 01:23:02;;;;;;;40.80;20.60;;;;;;;4.38;80.55;93766.34;5083723;28;20091;-80
2022/12/08 01:25:27;;;;;;;44.92;20.65;;;;;;;4.37;81.16;93770.03;5083474;28;20333;-79
2022/12/08 01:27:53;;;;;;;42.78;20.02;;;;;;;4.37;81.20;93775.31;5083306;28;20087;-79
2022/12/08 01:30:19;;;;;;;42.40;19.58;;;;;;;4.39;81.14;93773.19;5083315;28;20021;-79
2022/12/08 01:32:45;;;;;;;35.90;18.02;;;;;;;4.40;81.26;93778.19;5083259;28;20304;-80
2022/12/08 01:35:11;;;;;;;33.55;17.38;;;;;;;4.42;81.08;93770.00;5083292;28;20029;-79
2022/12/08 01:37:36;;;;;;;34.05;17.90;;;;;;;4.42;80.66;93759.44;5083289;28;20020;-79
2022/12/08 01:40:05;;;;;;;47.42;19.00;;;;;;;4.41;80.30;93753.38;5082020;28;20062;-80
2022/12/08 01:42:33;;;;;;;34.25;16.58;;;;;;;4.41;80.61;93744.66;5083341;28;20024;-80
2022/12/08 01:45:06;;;;;;;35.45;18.33;;;;;;;4.42;80.72;93747.03;5083108;28;20227;-79
2022/12/08 01:47:41;;;;;;;36.35;15.93;;;;;;;4.44;80.01;93736.22;5083300;28;20019;-79
2022/12/08 01:50:10;;;;;;;32.53;17.58;;;;;;;4.42;80.00;93744.41;5082897;28;20016;-80
2022/12/08 01:52:48;;;;;;;38.85;17.77;;;;;;;4.38;79.82;93724.13;5082928;28;20017;-80
2022/12/08 01:55:27;;;;;;;37.63;17.70;;;;;;;4.40;79.55;93729.91;5083039;28;20111;-79
2022/12/08 01:57:57;;;;;;;40.80;18.50;;;;;;;4.39;79.85;93738.88;5083037;28;20202;-79
2022/12/08 02:00:23;;;;;;;37.00;17.23;;;;;;;4.38;79.77;93732.81;5082714;28;20040;-79
2022/12/08 02:03:01;;;;;;;41.65;16.38;;;;;;;4.36;78.76;93732.31;5082710;28;20032;-79
2022/12/08 02:05:30;;;;;;;41.75;18.25;;;;;;;4.26;79.07;93729.75;5082896;28;20025;-79
2022/12/08 02:07:58;;;;;;;37.42;17.35;;;;;;;4.14;79.60;93724.06;5083090;28;20016;-80
2022/12/08 02:10:27;;;;;;;33.70;17.90;;;;;;;4.03;80.30;93731.25;5082831;28;20038;-79
2022/12/08 02:12:56;;;;;;;37.83;18.35;;;;;;;3.97;81.23;93729.72;5082742;28;20021;-79
2022/12/08 02:15:40;;;;;;;34.50;18.25;;;;;;;3.92;81.72;93740.28;5082683;28;20043;-80
2022/12/08 02:18:24;;;;;;;40.17;19.25;;;;;;;3.92;81.52;93727.09;5082837;28;20024;-80
2022/12/08 02:21:05;;;;;;;44.05;17.60;;;;;;;3.92;81.73;93733.16;5082446;28;20028;-80
2022/12/08 02:23:58;;;;;;;34.17;16.40;;;;;;;3.90;81.26;93731.88;5082566;28;20052;-80
2022/12/08 02:26:54;;;;;;;42.30;19.20;;;;;;;3.85;81.08;93734.50;5082328;28;20032;-80
2022/12/08 02:29:51;;;;;;;33.85;16.20;;;;;;;3.87;81.00;93735.03;5081460;28;20024;-80
2022/12/08 02:32:54;;;;;;;41.08;17.83;;;;;;;3.82;80.37;93731.38;5082470;28;20272;-80
2022/12/08 02:35:30;;;;;;;38.75;17.50;;;;;;;3.82;80.38;93725.31;5082397;28;20078;-79
2022/12/08 02:38:22;;;;;;;38.10;19.00;;;;;;;3.79;80.21;93731.94;5082599;28;20029;-81
2022/12/08 02:41:03;;;;;;;38.70;18.10;;;;;;;3.67;81.00;93718.28;5061250;28;20036;-80
2022/12/08 02:43:45;;;;;;;29.92;15.93;;;;;;;3.74;81.30;93723.25;5082450;28;20021;-80
2022/12/08 02:46:16;;;;;;;34.00;15.52;;;;;;;3.77;81.24;93728.00;5082516;28;20028;-80
2022/12/08 02:48:42;;;;;;;36.80;17.97;;;;;;;3.73;80.64;93717.19;5082445;28;20253;-80
2022/12/08 02:51:08;;;;;;;36.88;15.73;;;;;;;3.68;80.72;93725.13;5082174;28;20017;-80
2022/12/08 02:53:35;;;;;;;35.00;16.50;;;;;;;3.61;81.57;93720.16;5082665;28;20090;-80
2022/12/08 02:56:01;;;;;;;37.10;15.80;;;;;;;3.66;82.10;93721.19;5082472;28;20100;-80
2022/12/08 02:58:38;;;;;;;34.33;14.88;;;;;;;3.67;81.96;93718.28;5080900;28;20025;-80
2022/12/08 03:01:45;;;;;;;29.33;13.93;;;;;;;3.66;82.64;93721.97;5082463;28;20081;-78
2022/12/08 03:04:13;;;;;;;28.00;13.95;;;;;;;3.66;82.96;93711.44;5066263;28;20044;-78
2022/12/08 03:06:51;;;;;;;35.75;15.65;;;;;;;3.71;82.56;93715.91;5082183;28;20044;-78
2022/12/08 03:09:37;;;;;;;30.45;15.15;;;;;;;3.75;81.88;93717.72;5082263;28;20024;-79
2022/12/08 03:12:26;;;;;;;28.98;13.43;;;;;;;3.75;81.42;93722.22;5082264;28;20020;-79
2022/12/08 03:14:55;;;;;;;29.85;14.35;;;;;;;3.76;81.23;93737.72;5082085;28;20025;-79
2022/12/08 03:17:25;;;;;;;37.85;15.77;;;;;;;3.78;80.71;93719.00;5082207;28;20031;-78
2022/12/08 03:19:53;;;;;;;40.67;16.38;;;;;;;3.79;80.67;93718.75;5082165;28;20028;-78
2022/12/08 03:22:22;;;;;;;29.38;14.80;;;;;;;3.82;80.80;93720.81;5081936;28;20035;-79
2022/12/08 03:24:48;;;;;;;35.10;15.48;;;;;;;3.81;80.61;93713.22;5082024;28;20020;-79
2022/12/08 03:27:19;;;;;;;28.70;13.20;;;;;;;3.84;80.58;93717.91;5082197;28;20066;-79
2022/12/08 03:29:47;;;;;;;29.95;13.20;;;;;;;3.85;80.12;93718.69;5082128;28;20192;-79
2022/12/08 03:32:36;;;;;;;24.25;12.77;;;;;;;3.80;79.90;93716.88;5082061;28;20089;-79
2022/12/08 03:35:06;;;;;;;26.92;13.90;;;;;;;3.79;79.93;93716.09;5082211;28;20311;-78
2022/12/08 03:37:35;;;;;;;32.97;13.82;;;;;;;3.76;80.00;93719.28;5084499;28;20083;-79
2022/12/08 03:40:02;;;;;;;35.33;14.65;;;;;;;3.78;79.96;93719.00;5085419;28;20029;-79
2022/12/08 03:42:28;;;;;;;25.83;12.63;;;;;;;3.80;79.76;93715.03;5085473;28;20049;-79
2022/12/08 03:44:53;;;;;;;26.70;13.05;;;;;;;3.81;79.10;93718.47;5085291;28;20021;-79
2022/12/08 03:47:19;;;;;;;37.45;13.57;;;;;;;3.83;78.76;93729.53;5085300;28;20051;-79
2022/12/08 03:49:44;;;;;;;27.17;14.82;;;;;;;3.83;78.63;93729.53;5085305;28;20052;-79
2022/12/08 03:52:11;;;;;;;33.35;13.70;;;;;;;3.84;78.75;93727.69;5085284;28;20024;-79
2022/12/08 03:54:36;;;;;;;37.90;13.82;;;;;;;3.82;78.97;93717.41;5085176;28;20030;-79
2022/12/08 03:57:01;;;;;;;28.10;13.82;;;;;;;3.82;79.01;93728.72;5085408;28;20099;-79
2022/12/08 03:59:27;;;;;;;28.88;16.38;;;;;;;3.80;79.30;93730.84;5084909;28;20044;-79
2022/12/08 04:01:52;;;;;;;30.48;14.85;;;;;;;3.77;79.68;93734.03;5084941;28;20199;-79
2022/12/08 04:04:18;;;;;;;28.25;13.55;;;;;;;3.80;80.22;93730.84;5085286;28;20027;-80
2022/12/08 04:06:43;;;;;;;32.22;15.32;;;;;;;3.82;80.19;93741.13;5084906;28;20093;-78
2022/12/08 04:09:09;;;;;;;29.90;13.85;;;;;;;3.85;80.27;93739.78;5085107;28;20028;-78
2022/12/08 04:11:34;;;;;;;31.63;14.02;;;;;;;3.90;80.16;93740.56;5085069;28;20023;-78
2022/12/08 04:14:00;;;;;;;32.72;16.25;;;;;;;3.92;80.01;93748.19;5084938;28;20095;-78
2022/12/08 04:16:26;;;;;;;36.80;15.73;;;;;;;3.93;80.29;93747.13;5084745;28;20024;-80
2022/12/08 04:18:52;;;;;;;29.35;14.63;;;;;;;3.97;80.27;93750.81;5084837;28;20020;-80
2022/12/08 04:21:18;;;;;;;37.80;15.98;;;;;;;3.96;80.68;93739.47;5084712;28;20036;-79
2022/12/08 04:23:44;;;;;;;32.35;14.63;;;;;;;4.01;80.62;93741.28;5084637;28;20063;-79
2022/12/08 04:26:12;;;;;;;29.27;15.27;;;;;;;4.05;80.48;93744.97;5084683;28;20219;-79
2022/12/08 04:28:37;;;;;;;31.52;16.77;;;;;;;4.04;80.84;93743.38;5084677;28;20024;-79
2022/12/08 04:31:03;;;;;;;39.30;17.70;;;;;;;4.08;80.86;93736.47;5084649;28;20012;-78
2022/12/08 04:33:28;;;;;;;37.38;18.88;;;;;;;4.12;80.79;93742.00;5084564;28;20013;-78
2022/12/08 04:35:54;;;;;;;36.63;17.80;;;;;;;4.16;80.57;93743.81;5084359;28;20353;-79
2022/12/08 04:38:20;;;;;;;32.33;18.38;;;;;;;4.17;80.83;93736.66;5084438;28;20020;-78
2022/12/08 04:40:45;;;;;;;40.58;19.85;;;;;;;4.21;80.64;93729.78;5084361;28;20020;-79
2022/12/08 04:43:11;;;;;;;46.60;20.88;;;;;;;4.28;80.85;93740.81;5084195;28;20040;-78
2022/12/08 04:45:39;;;;;;;38.15;19.95;;;;;;;4.26;80.37;93727.13;5084096;28;20222;-78
2022/12/08 04:48:05;;;;;;;36.10;19.75;;;;;;;4.31;80.37;93736.84;5083706;28;20033;-79
2022/12/08 04:50:30;;;;;;;40.08;19.13;;;;;;;4.34;80.23;93741.56;5084372;28;20199;-79
2022/12/08 04:52:55;;;;;;;37.80;19.95;;;;;;;4.36;80.27;93742.88;5083886;28;20226;-79
2022/12/08 04:55:21;;;;;;;32.42;17.42;;;;;;;4.40;80.45;93751.81;5084181;28;20028;-79
2022/12/08 04:57:46;;;;;;;32.00;16.60;;;;;;;4.47;80.43;93750.69;5083799;28;20274;-79
2022/12/08 05:00:12;;;;;;;30.13;14.68;;;;;;;4.53;80.22;93750.38;5083610;28;20068;-79
2022/12/08 05:02:38;;;;;;;41.42;19.30;;;;;;;4.53;80.15;93745.09;5083793;28;20028;-79
2022/12/08 05:05:04;;;;;;;39.10;19.00;;;;;;;4.59;79.98;93751.91;5083902;28;20024;-78
2022/12/08 05:07:30;;;;;;;33.05;18.27;;;;;;;4.61;80.21;93752.41;5083898;28;20273;-79
2022/12/08 05:09:55;;;;;;;41.80;19.15;;;;;;;4.65;80.24;93751.88;5083782;28;20031;-79
2022/12/08 05:12:21;;;;;;;36.33;18.95;;;;;;;4.70;80.12;93757.91;5083504;28;20059;-79
2022/12/08 05:14:47;;;;;;;35.20;17.63;;;;;;;4.72;80.11;93766.31;5083639;28;20058;-79
2022/12/08 05:17:14;;;;;;;39.28;19.33;;;;;;;4.74;80.26;93744.91;5083559;28;20254;-80
2022/12/08 05:19:39;;;;;;;35.08;17.85;;;;;;;4.77;80.32;93760.97;5083657;28;20070;-79
2022/12/08 05:22:05;;;;;;;33.85;18.27;;;;;;;4.82;80.20;93760.13;5083305;28;20319;-80
2022/12/08 05:24:30;;;;;;;32.85;16.88;;;;;;;4.86;80.09;93763.78;5083591;28;20029;-80
2022/12/08 05:26:56;;;;;;;39.42;18.70;;;;;;;4.85;79.78;93759.59;5083289;28;20024;-80
2022/12/08 05:29:21;;;;;;;38.67;18.33;;;;;;;4.88;79.77;93761.66;5083235;28;20024;-78
2022/12/08 05:31:46;;;;;;;41.08;19.65;;;;;;;4.88;79.65;93776.72;5083293;28;20024;-77
2022/12/08 05:34:12;;;;;;;41.42;16.88;;;;;;;4.83;79.40;93773.06;5083252;28;20074;-77
2022/12/08 05:36:37;;;;;;;40.03;18.13;;;;;;;4.83;79.33;93769.66;5083401;28;20039;-76
2022/12/08 05:39:03;;;;;;;44.83;18.95;;;;;;;4.83;79.55;93769.66;5083033;28;20028;-77
2022/12/08 05:41:28;;;;;;;40.00;19.17;;;;;;;4.83;79.34;93788.91;5082991;28;20335;-76
2022/12/08 05:43:54;;;;;;;39.35;17.35;;;;;;;4.84;78.87;93792.34;5081877;28;20212;-80
2022/12/08 05:46:19;;;;;;;37.05;17.25;;;;;;;4.74;78.92;93781.88;5083227;28;20016;-79
2022/12/08 05:48:45;;;;;;;36.38;17.02;;;;;;;4.67;78.79;93781.41;5083126;28;20208;-78
2022/12/08 05:51:22;;;;;;;47.63;19.67;;;;;;;4.47;79.28;93785.00;5082839;28;20016;-77
2022/12/08 05:53:49;;;;;;;41.38;18.20;;;;;;;4.39;79.81;93783.75;5083016;28;20069;-79
2022/12/08 05:56:15;;;;;;;40.75;18.95;;;;;;;4.36;79.84;93777.16;5082886;28;20333;-80
2022/12/08 05:58:41;;;;;;;46.03;18.63;;;;;;;4.29;80.20;93787.22;5082296;28;20095;-80
2022/12/08 06:01:06;;;;;;;37.47;18.90;;;;;;;4.26;80.53;93787.03;5082648;28;20028;-82
2022/12/08 06:03:32;;;;;;;40.75;21.38;;;;;;;4.24;80.67;93789.16;5082958;28;20223;-83
2022/12/08 06:05:58;;;;;;;43.40;20.63;;;;;;;4.28;80.54;93792.81;5082669;28;20152;-83
2022/12/08 06:08:23;;;;;;;49.50;20.80;;;;;;;4.31;80.05;93793.03;5081710;28;20024;-83
2022/12/08 06:10:49;;;;;;;43.88;21.27;;;;;;;4.21;80.54;93782.53;5082830;28;20032;-82
2022/12/08 06:13:14;;;;;;;42.20;21.40;;;;;;;4.19;80.25;93780.19;5082780;28;20025;-83
2022/12/08 06:15:40;;;;;;;52.00;21.20;;;;;;;4.19;80.18;93782.03;5082578;28;20028;-82
2022/12/08 06:18:07;;;;;;;43.65;21.17;;;;;;;4.17;80.60;93795.50;5082747;28;20078;-82
2022/12/08 06:20:33;;;;;;;46.53;20.35;;;;;;;4.17;80.53;93795.50;5082679;28;20110;-82
2022/12/08 06:22:58;;;;;;;54.90;22.27;;;;;;;4.17;80.22;93800.78;5082685;28;20020;-82
2022/12/08 06:25:24;;;;;;;48.92;20.70;;;;;;;4.17;80.39;93805.25;5082721;28;20226;-82
2022/12/08 06:27:50;;;;;;;43.13;20.52;;;;;;;4.16;80.33;93809.75;5081394;28;20043;-83
2022/12/08 06:30:16;;;;;;;41.53;20.55;;;;;;;4.12;80.07;93819.28;5082409;28;20153;-82
2022/12/08 06:32:42;;;;;;;39.05;18.95;;;;;;;4.09;80.26;93814.56;5082442;28;20033;-82
2022/12/08 06:35:08;;;;;;;53.63;24.38;;;;;;;4.08;80.76;93817.47;5082553;28;20025;-83
2022/12/08 06:37:33;;;;;;;50.63;22.40;;;;;;;4.11;80.76;93807.16;5081586;28;20032;-82
2022/12/08 06:39:59;;;;;;;46.55;20.50;;;;;;;4.13;80.65;93807.69;5081105;28;20025;-83
2022/12/08 06:42:42;;;;;;;50.92;20.15;;;;;;;4.16;80.61;93815.03;5082335;28;20036;-82
2022/12/08 06:45:09;;;;;;;45.95;19.52;;;;;;;4.22;80.42;93800.75;5082518;28;20025;-82
2022/12/08 06:47:34;;;;;;;43.47;19.48;;;;;;;4.27;80.34;93794.63;5082408;28;20021;-82
2022/12/08 06:50:00;;;;;;;46.17;22.88;;;;;;;4.32;80.31;93791.19;5082366;28;20236;-81
2022/12/08 06:52:25;;;;;;;46.65;22.70;;;;;;;4.37;80.35;93799.06;5082426;28;20142;-82
2022/12/08 06:54:50;;;;;;;44.75;20.45;;;;;;;4.47;80.11;93788.44;5082620;28;20031;-82
2022/12/08 06:57:17;;;;;;;54.83;22.00;;;;;;;4.55;79.59;93793.13;5081430;28;20041;-81
2022/12/08 06:59:43;;;;;;;48.13;21.25;;;;;;;4.48;80.01;93792.66;5082145;28;20036;-82
2022/12/08 07:02:09;;;;;;;46.20;20.73;;;;;;;4.53;80.33;93791.81;5082385;28;20066;-82
2022/12/08 07:04:35;;;;;;;57.95;22.52;;;;;;;4.60;80.07;93797.59;5082220;28;20298;-81
2022/12/08 07:07:00;;;;;;;59.65;24.10;;;;;;;4.69;79.91;93800.41;5081189;28;20020;-82
2022/12/08 07:09:26;;;;;;;51.65;22.42;;;;;;;4.69;79.18;93800.41;5082140;28;20043;-82
2022/12/08 07:11:51;;;;;;;56.60;23.83;;;;;;;4.74;79.23;93809.06;5085167;28;20299;-82
2022/12/08 07:14:19;;;;;;;60.70;27.70;;;;;;;4.74;79.06;93810.91;5086016;28;20020;-82
2022/12/08 07:16:44;;;;;;;98.90;39.03;;;;;;;4.65;79.57;93820.50;5085985;28;20104;-82
2022/12/08 07:19:10;;;;;;;154.75;63.92;;;;;;;4.65;79.73;93825.78;5085773;28;20048;-82
2022/12/08 07:21:35;;;;;;;109.68;48.95;;;;;;;4.59;79.92;93833.72;5085709;28;20024;-82
2022/12/08 07:24:01;;;;;;;111.63;46.20;;;;;;;4.60;80.67;93835.31;5085888;28;20027;-82
2022/12/08 07:26:26;;;;;;;83.05;38.63;;;;;;;4.58;79.63;93837.44;5084491;28;20033;-82
2022/12/08 07:28:52;;;;;;;70.20;32.08;;;;;;;4.57;79.41;93845.63;5084436;28;20226;-82
2022/12/08 07:31:21;;;;;;;59.08;28.65;;;;;;;4.57;79.66;93851.69;5085605;28;20062;-82
2022/12/08 07:33:46;;;;;;;69.45;29.92;;;;;;;4.60;80.07;93851.16;5085454;28;20033;-82
2022/12/08 07:36:12;;;;;;;54.28;27.40;;;;;;;4.57;80.00;93853.56;5085635;28;20028;-82
2022/12/08 07:38:37;;;;;;;72.47;31.35;;;;;;;4.59;80.28;93854.06;5085385;28;20274;-82
2022/12/08 07:41:03;;;;;;;69.07;32.67;;;;;;;4.59;80.29;93854.06;5085508;28;20062;-82
2022/12/08 07:43:28;;;;;;;70.18;30.58;;;;;;;4.58;80.66;93855.94;5101038;28;20027;-82
2022/12/08 07:45:53;;;;;;;70.57;32.05;;;;;;;4.56;81.42;93851.97;5085412;28;20096;-82
2022/12/08 07:48:19;;;;;;;69.03;31.33;;;;;;;4.55;81.88;93847.75;5085374;28;20023;-82
2022/12/08 07:50:45;;;;;;;61.08;32.08;;;;;;;4.55;81.93;93848.53;5085381;28;20342;-82
2022/12/08 07:53:11;;;;;;;64.70;30.88;;;;;;;4.59;81.71;93843.50;5085370;28;20050;-82
2022/12/08 07:55:43;;;;;;;58.90;30.02;;;;;;;4.63;81.59;93845.31;5085095;28;20023;-81
2022/12/08 07:58:09;;;;;;;;;;;;;;;4.72;81.40;93842.91;5085707;28;20038;-81
2022/12/08 08:00:35;;;;;;;65.32;29.40;;;;;;;4.74;80.51;93837.31;5083952;28;19983;-82
2022/12/08 08:03:01;;;;;;;69.80;32.20;;;;;;;4.76;80.84;93837.81;5085214;28;20027;-82
2022/12/08 08:05:27;;;;;;;67.93;31.70;;;;;;;4.85;81.01;93845.97;5084843;28;20017;-82
2022/12/08 08:07:52;;;;;;;56.42;27.98;;;;;;;4.95;81.13;93841.38;5084990;28;20071;-82
2022/12/08 08:10:17;;;;;;;56.72;28.02;;;;;;;5.05;80.26;93839.69;5085104;28;20028;-82
2022/12/08 08:12:43;;;;;;;67.05;30.55;;;;;;;5.10;79.84;93837.00;5085047;28;20017;-82
2022/12/08 08:15:09;;;;;;;65.43;30.15;;;;;;;5.18;80.14;93845.13;5084805;28;20024;-82
2022/12/08 08:17:36;;;;;;;59.85;30.13;;;;;;;5.26;80.12;93843.72;5084945;28;20307;-81
2022/12/08 08:20:06;;;;;;;55.72;27.40;;;;;;;5.39;79.31;93836.97;5084963;28;20017;-82
2022/12/08 08:22:32;;;;;;;58.67;27.23;;;;;;;5.50;79.12;93848.25;5084395;28;20028;-82
2022/12/08 08:24:58;;;;;;;50.95;27.20;;;;;;;5.56;79.13;93849.78;5084953;28;20029;-82
2022/12/08 08:27:25;;;;;;;49.38;25.02;;;;;;;5.69;78.97;93843.78;5084768;28;20275;-82
2022/12/08 08:29:51;;;;;;;41.63;21.67;;;;;;;5.83;78.49;93851.84;5084851;28;20199;-82
2022/12/08 08:32:17;;;;;;;41.15;21.13;;;;;;;5.95;77.81;93846.94;5084795;28;20095;-82
2022/12/08 08:34:42;;;;;;;44.70;23.05;;;;;;;6.08;77.19;93844.69;5084628;28;20020;-82
2022/12/08 08:37:08;;;;;;;46.05;22.50;;;;;;;6.18;76.27;93841.91;5084406;28;20017;-82
2022/12/08 08:39:35;;;;;;;59.33;25.77;;;;;;;6.22;75.33;93846.31;5084484;28;20104;-81
2022/12/08 08:42:00;;;;;;;45.80;22.45;;;;;;;6.21;75.40;93855.34;5083232;28;20074;-81
2022/12/08 08:44:26;;;;;;;52.95;22.52;;;;;;;6.25;75.55;93852.13;5084495;28;20265;-82
2022/12/08 08:46:51;;;;;;;51.78;24.55;;;;;;;6.20;75.79;93848.47;5084522;28;20036;-82
2022/12/08 08:49:17;;;;;;;52.38;26.33;;;;;;;6.22;76.36;93841.03;5084357;28;20024;-82
2022/12/08 08:51:43;;;;;;;70.18;28.83;;;;;;;6.26;76.35;93841.25;5084070;28;20015;-80
2022/12/08 08:54:08;;;;;;;67.63;26.95;;;;;;;6.36;76.46;93838.47;5082967;28;20048;-78
2022/12/08 08:56:34;;;;;;;60.60;25.02;;;;;;;6.39;76.33;93834.44;5084280;28;20016;-79
2022/12/08 08:59:01;;;;;;;75.50;28.98;;;;;;;6.51;76.50;93841.97;5084390;28;20302;-80
2022/12/08 09:01:27;;;;;;;58.75;28.90;;;;;;;6.65;76.43;93824.25;5084102;28;20028;-80
2022/12/08 09:03:56;;;;;;;69.35;29.77;;;;;;;6.79;76.37;93824.31;5083856;28;20024;-78
2022/12/08 09:06:22;;;;;;;62.22;30.02;;;;;;;6.92;76.00;93831.53;5084067;28;20016;-78
2022/12/08 09:08:48;;;;;;;62.92;30.42;;;;;;;7.10;75.12;93818.50;5084014;28;20096;-79
2022/12/08 09:11:15;;;;;;;66.75;28.23;;;;;;;7.22;75.19;93832.09;5083821;28;20318;-79
2022/12/08 09:13:40;;;;;;;58.70;27.80;;;;;;;7.29;74.75;93827.19;5083668;28;20251;-79
2022/12/08 09:16:07;;;;;;;80.35;30.17;;;;;;;7.36;74.81;93810.91;5083771;28;20042;-78
2022/12/08 09:18:33;;;;;;;66.40;28.92;;;;;;;7.48;74.54;93815.72;5083812;28;20021;-80
2022/12/08 09:21:15;;;;;;;75.63;30.58;;;;;;;7.62;74.25;93813.84;5083624;28;20025;-79
2022/12/08 09:23:41;;;;;;;64.78;29.15;;;;;;;7.70;74.12;93807.84;5083546;28;20135;-79
2022/12/08 09:26:07;;;;;;;65.70;30.55;;;;;;;7.82;73.77;93812.66;5083723;28;20025;-78
2022/12/08 09:28:33;;;;;;;71.85;29.63;;;;;;;7.89;73.62;93807.75;5083796;28;20190;-79
2022/12/08 09:30:58;;;;;;;64.20;31.10;;;;;;;8.01;72.75;93807.22;5083392;28;20028;-78
2022/12/08 09:33:24;;;;;;;62.15;27.73;;;;;;;8.10;71.96;93808.13;5083478;28;20039;-78
2022/12/08 09:35:49;;;;;;;61.25;27.92;;;;;;;8.20;70.85;93799.94;5083414;28;20024;-79
2022/12/08 09:38:15;;;;;;;60.47;28.60;;;;;;;8.26;70.69;93789.97;5083365;28;20086;-78
2022/12/08 09:40:52;;;;;;;63.88;27.17;;;;;;;8.30;71.19;93793.59;5082071;28;20054;-79
2022/12/08 09:43:41;;;;;;;63.03;28.02;;;;;;;8.41;71.08;93805.59;5082155;28;20057;-79
2022/12/08 09:46:09;;;;;;;64.15;29.27;;;;;;;8.56;70.06;93803.69;5083004;28;20043;-79
2022/12/08 09:48:38;;;;;;;70.55;29.13;;;;;;;8.57;68.77;93802.59;5082827;28;20032;-78
2022/12/08 09:51:04;;;;;;;71.13;29.42;;;;;;;8.57;69.33;93784.78;5082903;28;20436;-76
2022/12/08 09:53:51;;;;;;;68.28;29.13;;;;;;;8.57;69.16;93789.31;5083155;28;20126;-78
2022/12/08 09:56:21;;;;;;;63.08;30.60;;;;;;;8.54;69.76;93797.88;5083280;28;20020;-77
2022/12/08 09:58:55;;;;;;;78.55;29.35;;;;;;;8.63;69.89;93796.88;5083061;28;20026;-78
2022/12/08 10:01:25;;;;;;;57.30;28.00;;;;;;;8.67;69.86;93791.75;5083031;28;20025;-79
2022/12/08 10:03:51;;;;;;;65.65;30.92;;;;;;;8.76;69.85;93773.19;5083114;28;20240;-78
2022/12/08 10:06:20;;;;;;;58.42;29.90;;;;;;;8.88;69.75;93775.28;5082928;28;20055;-79
2022/12/08 10:09:08;;;;;;;57.22;28.17;;;;;;;8.94;69.38;93772.19;5082748;28;20029;-78
2022/12/08 10:12:09;;;;;;;62.22;27.35;;;;;;;9.06;69.03;93761.00;5083000;28;20055;-78
2022/12/08 10:14:41;;;;;;;56.50;26.00;;;;;;;9.19;68.94;93748.69;5082820;28;20424;-78
2022/12/08 10:17:27;;;;;;;63.10;25.77;;;;;;;9.28;68.35;93738.91;5081538;28;20035;-78
2022/12/08 10:20:02;;;;;;;63.72;26.58;;;;;;;9.40;67.68;93747.06;5082630;28;20019;-79
2022/12/08 10:22:33;;;;;;;56.95;26.60;;;;;;;9.55;67.72;93750.41;5082571;28;20031;-77
2022/12/08 10:25:06;;;;;;;59.40;24.70;;;;;;;9.68;67.69;93749.50;5082787;28;20033;-76
2022/12/08 10:27:34;;;;;;;;;;;;;;;9.84;67.61;93753.28;5083017;28;20028;-79
2022/12/08 10:29:59;;;;;;;44.40;23.02;;;;;;;9.95;67.42;93759.13;5082969;28;19924;-80
2022/12/08 10:32:33;;;;;;;60.53;26.35;;;;;;;10.12;66.68;93747.69;5082469;28;20036;-79
2022/12/08 10:35:11;;;;;;;46.38;22.38;;;;;;;10.23;66.14;93740.94;5082758;28;20099;-77
2022/12/08 10:37:37;;;;;;;49.40;21.95;;;;;;;10.25;64.87;93744.06;5082477;28;20024;-79
2022/12/08 10:40:12;;;;;;;52.83;21.23;;;;;;;10.16;64.68;93748.63;5082519;28;20020;-78
2022/12/08 10:42:47;;;;;;;46.53;23.27;;;;;;;10.16;65.17;93737.22;5082497;28;20040;-79
2022/12/08 10:45:15;;;;;;;46.45;21.13;;;;;;;10.20;64.81;93733.59;5083034;28;20089;-79
2022/12/08 10:47:42;;;;;;;54.80;22.95;;;;;;;10.30;64.31;93740.53;5085376;28;20095;-78
2022/12/08 10:50:22;;;;;;;47.80;22.27;;;;;;;10.36;63.88;93725.16;5086559;28;20036;-77
2022/12/08 10:53:07;;;;;;;41.00;21.77;;;;;;;10.41;63.35;93723.09;5086543;28;20025;-78
2022/12/08 10:55:45;;;;;;;43.42;20.30;;;;;;;10.54;63.42;93721.41;5086546;28;20047;-80
2022/12/08 10:58:25;;;;;;;41.75;19.88;;;;;;;10.68;63.36;93710.53;5086270;28;20055;-78
2022/12/08 11:00:54;;;;;;;53.05;20.98;;;;;;;10.81;63.04;93703.47;5086273;28;20086;-80
2022/12/08 11:03:29;;;;;;;37.13;16.70;;;;;;;10.91;61.71;93715.66;5086149;28;20271;-79
2022/12/08 11:05:57;;;;;;;34.33;13.85;;;;;;;10.90;61.44;93709.53;5086379;28;20028;-77
2022/12/08 11:08:24;;;;;;;45.97;16.20;;;;;;;11.09;61.78;93708.38;5085982;28;20093;-79
2022/12/08 11:10:49;;;;;;;33.35;18.20;;;;;;;11.25;62.16;93701.41;5085843;28;20211;-79
2022/12/08 11:13:22;;;;;;;46.75;18.88;;;;;;;11.39;61.89;93701.97;5085836;28;20024;-80
2022/12/08 11:15:49;;;;;;;47.40;18.33;;;;;;;11.43;59.70;93707.47;5086231;28;20070;-80
2022/12/08 11:18:37;;;;;;;37.17;18.08;;;;;;;11.54;59.87;93692.66;5086216;28;20254;-79
2022/12/08 11:21:11;;;;;;;37.78;18.05;;;;;;;11.71;60.20;93683.00;5086261;28;20020;-79
2022/12/08 11:23:37;;;;;;;39.92;19.02;;;;;;;11.83;59.30;93673.16;5085933;28;20309;-81
2022/12/08 11:26:10;;;;;;;45.08;17.45;;;;;;;11.95;58.71;93671.72;5086048;28;20088;-81
2022/12/08 11:28:36;;;;;;;30.13;14.75;;;;;;;12.01;58.60;93668.50;5085793;28;20061;-80
2022/12/08 11:31:18;;;;;;;37.47;17.35;;;;;;;12.05;58.07;93673.97;5086395;28;20040;-80
2022/12/08 11:33:44;;;;;;;26.73;14.07;;;;;;;12.13;57.92;93675.81;5085686;28;20300;-79
2022/12/08 11:36:13;;;;;;;37.30;14.90;;;;;;;12.27;57.36;93674.72;5085603;28;20280;-82